Time;durP1;ratioP1;P1;durP2;ratioP2;P2;SDS_P1;SDS_P2;PMS_P1;PMS_P2;Temp;Humidity;BMP_temperature;BMP_pressure;BME280_temperature;BME280_humidity;BME280_pressure;Samples;Min_cycle;Max_cycle;Signal;HPM_P1;HPM_P2
2021/11/26 00:01:26;;;;;;;7.68;2.35;;;15.80;47.40;;;;;;5035808;28;20485;-57
2021/11/26 00:03:52;;;;;;;5.55;2.33;;;15.70;47.40;;;;;;5019168;28;20037;-56
2021/11/26 00:06:18;;;;;;;7.55;2.22;;;15.70;47.50;;;;;;5037178;28;20382;-54
2021/11/26 00:08:45;;;;;;;3.92;2.00;;;15.70;47.50;;;;;;5036647;28;20040;-56
2021/11/26 00:11:10;;;;;;;5.18;1.95;;;15.70;47.50;;;;;;5036889;28;20018;-57
2021/11/26 00:13:40;;;;;;;5.65;2.17;;;15.70;47.50;;;;;;5038010;28;20021;-57
2021/11/26 00:16:10;;;;;;;7.22;2.22;;;15.70;47.50;;;;;;5037110;28;20017;-54
2021/11/26 00:18:41;;;;;;;6.82;2.00;;;15.70;47.50;;;;;;5036958;28;20029;-57
2021/11/26 00:21:08;;;;;;;3.55;1.73;;;15.70;47.50;;;;;;5036269;28;20032;-56
2021/11/26 00:23:34;;;;;;;4.03;1.88;;;15.70;47.50;;;;;;5019584;28;20108;-53
2021/11/26 00:26:01;;;;;;;4.32;1.77;;;15.70;48.10;;;;;;5036499;28;20049;-57
2021/11/26 00:28:26;;;;;;;5.00;1.60;;;15.70;47.60;;;;;;5036513;28;20041;-54
2021/11/26 00:30:54;;;;;;;7.53;1.75;;;15.70;47.60;;;;;;5019361;28;20036;-57
2021/11/26 00:33:20;;;;;;;2.45;1.45;;;15.70;47.60;;;;;;5036322;28;20026;-55
2021/11/26 00:35:46;;;;;;;6.32;2.15;;;15.70;47.70;;;;;;5035972;28;20115;-57
2021/11/26 00:38:12;;;;;;;5.40;1.80;;;15.70;47.70;;;;;;5038618;28;20033;-54
2021/11/26 00:40:39;;;;;;;3.15;1.60;;;15.70;47.70;;;;;;5038688;28;20101;-57
2021/11/26 00:43:05;;;;;;;5.05;1.83;;;15.70;47.70;;;;;;5037783;28;20029;-56
2021/11/26 00:45:31;;;;;;;5.63;2.03;;;15.70;47.80;;;;;;5020219;28;20028;-53
2021/11/26 00:47:57;;;;;;;5.18;1.60;;;15.70;47.80;;;;;;5038043;28;20371;-54
2021/11/26 00:50:23;;;;;;;3.55;1.52;;;15.70;47.80;;;;;;5037859;28;20124;-57
2021/11/26 00:52:49;;;;;;;6.07;1.77;;;15.70;47.90;;;;;;5037886;28;20018;-57
2021/11/26 00:55:16;;;;;;;2.90;1.30;;;15.60;47.90;;;;;;5020086;28;20017;-57
2021/11/26 00:57:41;;;;;;;4.25;1.48;;;15.60;47.90;;;;;;5021447;28;20035;-58
2021/11/26 01:00:09;;;;;;;2.95;1.80;;;15.60;48.10;;;;;;5037998;28;20021;-57
2021/11/26 01:02:36;;;;;;;2.78;1.35;;;15.60;48.20;;;;;;5036348;28;20014;-57
2021/11/26 01:05:02;;;;;;;3.15;1.25;;;15.50;48.20;;;;;;5035408;28;20072;-54
2021/11/26 01:07:29;;;;;;;4.38;1.60;;;15.50;48.30;;;;;;5035743;28;20470;-55
2021/11/26 01:09:54;;;;;;;3.47;1.40;;;15.50;48.30;;;;;;5036176;28;20013;-56
2021/11/26 01:12:20;;;;;;;4.50;1.58;;;15.50;48.30;;;;;;5018482;28;20425;-54
2021/11/26 01:14:47;;;;;;;5.72;1.67;;;15.50;48.30;;;;;;5036666;28;20018;-55
2021/11/26 01:17:12;;;;;;;4.18;1.60;;;15.50;48.40;;;;;;5036132;28;20108;-57
2021/11/26 01:19:41;;;;;;;6.22;1.67;;;15.50;48.40;;;;;;5035481;28;20048;-54
2021/11/26 01:22:06;;;;;;;2.28;1.15;;;15.50;48.60;;;;;;5035927;28;20021;-56
2021/11/26 01:24:33;;;;;;;4.60;1.45;;;15.50;48.60;;;;;;5035499;28;20109;-54
2021/11/26 01:27:01;;;;;;;3.53;1.38;;;15.50;48.60;;;;;;5036643;28;20045;-56
2021/11/26 01:29:27;;;;;;;3.85;1.52;;;15.50;48.60;;;;;;5037512;28;20021;-56
2021/11/26 01:31:53;;;;;;;3.22;1.40;;;15.50;48.60;;;;;;5018801;28;20077;-54
2021/11/26 01:34:19;;;;;;;2.67;1.27;;;15.50;48.70;;;;;;5036176;28;20079;-57
2021/11/26 01:36:49;;;;;;;4.03;1.30;;;15.50;48.60;;;;;;5036057;28;20022;-55
2021/11/26 01:39:14;;;;;;;4.95;1.40;;;15.50;48.70;;;;;;5034841;28;20076;-55
2021/11/26 01:41:42;;;;;;;4.38;1.30;;;15.50;48.70;;;;;;5017182;28;20018;-52
2021/11/26 01:44:08;;;;;;;3.55;1.38;;;15.50;48.70;;;;;;5034862;28;20029;-55
2021/11/26 01:46:39;;;;;;;3.38;1.40;;;15.50;48.70;;;;;;5035302;28;20049;-55
2021/11/26 01:49:04;;;;;;;2.70;1.10;;;15.50;48.70;;;;;;5035519;28;20034;-56
2021/11/26 01:51:31;;;;;;;3.10;1.38;;;15.50;48.70;;;;;;5035868;28;20022;-57
2021/11/26 01:53:57;;;;;;;4.30;1.20;;;15.50;48.70;;;;;;5036269;28;20021;-55
2021/11/26 01:56:25;;;;;;;3.10;1.10;;;15.50;48.70;;;;;;5036236;28;20018;-54
2021/11/26 01:58:52;;;;;;;4.65;1.40;;;15.50;48.70;;;;;;5036703;28;20397;-54
2021/11/26 02:01:18;;;;;;;4.10;1.38;;;15.40;48.70;;;;;;5036783;28;20030;-54
2021/11/26 02:03:45;;;;;;;2.15;1.00;;;15.40;48.70;;;;;;5018014;28;20524;-54
2021/11/26 02:06:10;;;;;;;4.03;1.20;;;15.40;48.80;;;;;;5036499;28;20047;-57
2021/11/26 02:08:36;;;;;;;7.05;1.20;;;15.40;48.80;;;;;;5037377;28;20037;-57
2021/11/26 02:11:03;;;;;;;3.38;1.10;;;15.30;48.80;;;;;;5019622;28;20021;-55
2021/11/26 02:13:29;;;;;;;3.80;1.23;;;15.40;48.90;;;;;;5036308;28;20017;-55
2021/11/26 02:15:59;;;;;;;8.63;1.20;;;15.30;48.80;;;;;;5034186;28;20160;-53
2021/11/26 02:18:25;;;;;;;3.80;1.33;;;15.30;48.80;;;;;;5035947;28;20018;-55
2021/11/26 02:20:51;;;;;;;3.80;1.30;;;15.30;48.90;;;;;;5036470;28;20041;-57
2021/11/26 02:23:19;;;;;;;6.53;1.25;;;15.30;48.90;;;;;;5035745;28;20021;-55
2021/11/26 02:25:44;;;;;;;4.75;1.42;;;15.30;48.90;;;;;;5017798;28;20113;-56
2021/11/26 02:28:11;;;;;;;6.90;1.70;;;15.30;49.00;;;;;;5035108;28;20508;-54
2021/11/26 02:30:37;;;;;;;3.72;1.48;;;15.30;48.90;;;;;;5035855;28;20014;-56
2021/11/26 02:33:22;;;;;;;4.95;1.55;;;15.30;49.00;;;;;;5036317;28;20482;-56
2021/11/26 02:35:51;;;;;;;5.90;2.10;;;15.30;49.00;;;;;;5036958;28;20028;-57
2021/11/26 02:38:17;;;;;;;5.93;1.60;;;15.30;49.10;;;;;;5036842;28;20021;-57
2021/11/26 02:40:43;;;;;;;4.55;1.70;;;15.30;49.10;;;;;;5018630;28;20025;-56
2021/11/26 02:43:10;;;;;;;5.20;1.70;;;15.20;49.10;;;;;;5034935;28;20014;-54
2021/11/26 02:45:36;;;;;;;4.30;1.50;;;15.20;49.10;;;;;;5017031;28;20473;-57
2021/11/26 02:48:01;;;;;;;3.50;1.40;;;15.20;49.10;;;;;;5035373;28;20028;-55
2021/11/26 02:50:32;;;;;;;3.38;1.58;;;15.20;49.20;;;;;;5035892;28;20018;-54
2021/11/26 02:52:58;;;;;;;6.00;1.45;;;15.20;49.20;;;;;;5035573;28;20009;-55
2021/11/26 02:55:27;;;;;;;6.65;1.60;;;15.20;49.10;;;;;;5034877;28;20041;-57
2021/11/26 02:57:52;;;;;;;4.75;1.98;;;15.20;49.10;;;;;;5017310;28;20014;-56
2021/11/26 03:00:20;;;;;;;4.28;1.85;;;15.20;49.10;;;;;;5034810;28;20105;-54
2021/11/26 03:02:46;;;;;;;6.30;1.98;;;15.10;49.20;;;;;;5034419;28;20014;-54
2021/11/26 03:05:13;;;;;;;6.35;2.20;;;15.10;49.20;;;;;;5033493;28;20094;-54
2021/11/26 03:07:39;;;;;;;6.45;1.95;;;15.10;49.20;;;;;;5034225;28;20567;-53
2021/11/26 03:10:09;;;;;;;5.47;1.75;;;15.10;49.20;;;;;;5036320;28;20478;-55
2021/11/26 03:12:34;;;;;;;7.75;2.20;;;15.10;49.20;;;;;;5021891;28;20093;-53
2021/11/26 03:15:00;;;;;;;7.38;1.90;;;15.10;49.20;;;;;;5021385;28;20099;-58
2021/11/26 03:17:26;;;;;;;8.25;2.10;;;15.00;49.10;;;;;;5039899;28;20017;-56
2021/11/26 03:19:53;;;;;;;9.30;2.17;;;15.00;49.20;;;;;;5040400;28;20018;-58
2021/11/26 03:22:19;;;;;;;5.03;1.88;;;15.00;49.20;;;;;;5021285;28;20009;-56
2021/11/26 03:24:45;;;;;;;7.80;2.20;;;15.00;49.20;;;;;;5038935;28;20791;-54
2021/11/26 03:27:11;;;;;;;9.05;3.15;;;15.00;49.20;;;;;;5039092;28;20053;-56
2021/11/26 03:29:38;;;;;;;4.97;1.92;;;15.00;49.10;;;;;;5038836;28;20040;-55
2021/11/26 03:32:06;;;;;;;9.95;2.78;;;15.00;49.10;;;;;;5038219;28;20061;-55
2021/11/26 03:34:33;;;;;;;6.45;1.88;;;15.00;49.20;;;;;;5037877;28;20025;-56
2021/11/26 03:36:59;;;;;;;11.95;2.50;;;14.90;49.30;;;;;;5038019;28;20020;-56
2021/11/26 03:39:26;;;;;;;6.28;1.90;;;14.90;49.40;;;;;;5039053;28;20021;-57
2021/11/26 03:41:52;;;;;;;7.32;2.55;;;14.90;49.40;;;;;;5040403;28;20096;-56
2021/11/26 03:44:18;;;;;;;8.20;2.33;;;14.80;49.50;;;;;;5040047;28;20030;-55
2021/11/26 03:46:44;;;;;;;8.68;2.40;;;14.80;49.50;;;;;;5039942;28;20492;-57
2021/11/26 03:49:10;;;;;;;9.80;2.63;;;14.80;49.50;;;;;;5023367;28;20436;-54
2021/11/26 03:51:37;;;;;;;7.22;2.40;;;14.80;49.50;;;;;;5040768;28;20014;-56
2021/11/26 03:54:02;;;;;;;8.60;2.42;;;14.80;49.60;;;;;;5040713;28;20005;-57
2021/11/26 03:56:29;;;;;;;8.27;2.90;;;14.70;49.70;;;;;;5005736;28;20035;-55
2021/11/26 03:58:55;;;;;;;7.10;2.30;;;14.70;49.70;;;;;;5039832;28;20025;-56
2021/11/26 04:01:22;;;;;;;6.80;2.22;;;14.70;49.60;;;;;;5038062;28;20021;-55
2021/11/26 04:03:48;;;;;;;10.43;3.25;;;14.80;49.60;;;;;;5037715;28;20024;-55
2021/11/26 04:06:15;;;;;;;9.15;2.80;;;14.70;49.50;;;;;;5018675;28;20041;-54
2021/11/26 04:08:42;;;;;;;6.43;2.45;;;14.70;49.60;;;;;;5018646;28;20033;-55
2021/11/26 04:11:12;;;;;;;5.78;2.40;;;14.70;49.50;;;;;;5037892;28;20014;-56
2021/11/26 04:13:38;;;;;;;9.27;3.00;;;14.70;49.60;;;;;;5037398;28;20022;-54
2021/11/26 04:16:06;;;;;;;12.98;3.25;;;14.70;49.40;;;;;;5036666;28;20022;-56
2021/11/26 04:18:34;;;;;;;11.18;3.35;;;14.70;49.40;;;;;;5037729;28;20025;-54
2021/11/26 04:21:03;;;;;;;9.90;2.83;;;14.70;49.50;;;;;;5037432;28;20030;-55
2021/11/26 04:23:30;;;;;;;11.75;2.83;;;14.70;49.40;;;;;;5036667;28;20028;-53
2021/11/26 04:25:57;;;;;;;7.63;2.38;;;14.80;49.30;;;;;;5037596;28;20025;-56
2021/11/26 04:28:23;;;;;;;9.10;3.13;;;14.80;49.00;;;;;;5037298;28;20037;-56
2021/11/26 04:30:49;;;;;;;8.13;2.72;;;14.90;48.80;;;;;;5019418;28;20052;-58
2021/11/26 04:33:15;;;;;;;9.45;2.60;;;15.10;48.50;;;;;;5037281;28;20021;-55
2021/11/26 04:35:44;;;;;;;8.57;2.55;;;15.20;48.20;;;;;;5037571;28;20025;-54
2021/11/26 04:38:11;;;;;;;9.38;3.05;;;15.20;47.90;;;;;;5036362;28;20024;-55
2021/11/26 04:40:36;;;;;;;7.20;2.30;;;15.30;47.60;;;;;;5019128;28;20026;-58
2021/11/26 04:43:02;;;;;;;7.47;2.60;;;15.40;47.30;;;;;;5039128;28;20022;-56
2021/11/26 04:45:28;;;;;;;10.57;3.00;;;15.60;46.80;;;;;;5021661;28;20025;-57
2021/11/26 04:47:53;;;;;;;7.75;2.70;;;15.70;46.50;;;;;;5021906;28;20046;-57
2021/11/26 04:50:20;;;;;;;9.40;3.15;;;15.70;46.20;;;;;;5040024;28;20013;-56
2021/11/26 04:52:45;;;;;;;8.50;3.28;;;15.80;46.10;;;;;;5039960;28;20049;-57
2021/11/26 04:55:12;;;;;;;8.63;2.92;;;15.90;45.80;;;;;;5038838;28;20021;-56
2021/11/26 04:57:38;;;;;;;8.70;2.58;;;16.00;45.70;;;;;;5038796;28;20049;-56
2021/11/26 05:00:04;;;;;;;10.57;3.30;;;16.00;45.40;;;;;;5003380;28;20491;-55
2021/11/26 05:02:30;;;;;;;10.40;2.70;;;16.10;45.10;;;;;;5035905;28;20028;-55
2021/11/26 05:04:56;;;;;;;11.32;3.67;;;16.20;45.00;;;;;;5036474;28;20068;-56
2021/11/26 05:07:24;;;;;;;10.93;3.13;;;16.20;44.80;;;;;;5037035;28;20037;-56
2021/11/26 05:09:51;;;;;;;13.25;3.55;;;16.10;44.70;;;;;;5020916;28;20076;-55
2021/11/26 05:12:17;;;;;;;10.02;3.03;;;16.30;44.60;;;;;;5038738;28;20025;-55
2021/11/26 05:14:44;;;;;;;7.93;2.63;;;16.30;44.30;;;;;;5037785;28;20028;-56
2021/11/26 05:17:10;;;;;;;11.20;3.38;;;16.40;44.00;;;;;;5003589;28;20026;-56
2021/11/26 05:19:36;;;;;;;9.60;3.60;;;16.40;44.10;;;;;;5037873;28;20063;-56
2021/11/26 05:22:02;;;;;;;11.82;3.08;;;16.50;43.80;;;;;;5036650;28;20069;-56
2021/11/26 05:24:28;;;;;;;11.23;3.35;;;16.60;43.50;;;;;;5037782;28;20013;-56
2021/11/26 05:26:54;;;;;;;9.30;3.03;;;16.70;43.20;;;;;;5036941;28;20022;-55
2021/11/26 05:29:20;;;;;;;10.02;3.05;;;16.80;42.90;;;;;;5036140;28;20022;-54
2021/11/26 05:31:46;;;;;;;7.93;3.13;;;16.90;42.80;;;;;;5020526;28;20041;-55
2021/11/26 05:34:12;;;;;;;11.38;3.17;;;17.00;42.50;;;;;;5035752;28;20374;-56
2021/11/26 05:36:42;;;;;;;8.95;3.10;;;17.00;42.20;;;;;;5036613;28;20101;-56
2021/11/26 05:39:07;;;;;;;10.45;2.92;;;17.10;42.00;;;;;;5037329;28;20026;-57
2021/11/26 05:41:33;;;;;;;9.85;3.13;;;17.20;41.90;;;;;;5018359;28;20383;-56
2021/11/26 05:43:59;;;;;;;8.52;3.45;;;17.20;41.60;;;;;;5036190;28;20025;-56
2021/11/26 05:46:25;;;;;;;10.85;3.90;;;17.20;41.50;;;;;;5036170;28;20143;-57
2021/11/26 05:48:50;;;;;;;8.45;3.15;;;17.30;41.30;;;;;;5035670;28;20381;-54
2021/11/26 05:51:16;;;;;;;10.82;3.53;;;17.40;41.10;;;;;;5036228;28;20017;-56
2021/11/26 05:53:42;;;;;;;11.43;3.63;;;17.50;40.90;;;;;;5018414;28;20020;-57
2021/11/26 05:56:08;;;;;;;9.93;3.38;;;17.50;40.70;;;;;;5017957;28;20013;-56
2021/11/26 05:58:35;;;;;;;9.65;3.53;;;17.60;40.40;;;;;;5036705;28;20022;-56
2021/11/26 06:01:01;;;;;;;11.77;3.30;;;17.70;40.30;;;;;;5036900;28;20017;-57
2021/11/26 06:03:27;;;;;;;9.65;2.90;;;17.90;40.00;;;;;;5036632;28;20437;-57
2021/11/26 06:05:53;;;;;;;7.53;3.00;;;17.90;39.70;;;;;;5035053;28;20034;-57
2021/11/26 06:08:20;;;;;;;9.88;3.33;;;18.00;39.60;;;;;;5034924;28;20057;-58
2021/11/26 06:10:47;;;;;;;9.40;3.10;;;18.00;39.40;;;;;;5034854;28;20021;-57
2021/11/26 06:13:13;;;;;;;10.05;3.45;;;18.00;39.20;;;;;;5033809;28;20018;-58
2021/11/26 06:15:39;;;;;;;9.68;3.50;;;18.00;38.90;;;;;;5033865;28;20018;-57
2021/11/26 06:18:05;;;;;;;8.73;3.45;;;18.10;38.90;;;;;;5034279;28;20100;-57
2021/11/26 06:20:31;;;;;;;12.40;3.45;;;18.00;38.90;;;;;;5016058;28;20026;-58
2021/11/26 06:22:57;;;;;;;8.77;3.55;;;17.90;39.00;;;;;;5034661;28;20018;-58
2021/11/26 06:25:23;;;;;;;9.85;3.65;;;17.90;38.90;;;;;;5034574;28;20064;-58
2021/11/26 06:27:49;;;;;;;9.77;4.00;;;18.00;38.80;;;;;;5033943;28;20034;-58
2021/11/26 06:30:16;;;;;;;12.07;3.70;;;18.20;38.60;;;;;;5033867;28;20013;-57
2021/11/26 06:32:43;;;;;;;10.70;3.88;;;18.20;38.50;;;;;;5033911;28;20100;-59
2021/11/26 06:35:10;;;;;;;13.38;3.97;;;18.30;38.30;;;;;;5034260;28;20024;-57
2021/11/26 06:37:36;;;;;;;8.00;3.70;;;18.30;38.20;;;;;;5033918;28;20096;-57
2021/11/26 06:40:02;;;;;;;10.23;3.70;;;18.30;38.00;;;;;;5032976;28;20056;-56
2021/11/26 06:42:28;;;;;;;9.88;3.65;;;18.30;37.90;;;;;;5033260;28;20014;-57
2021/11/26 06:44:54;;;;;;;8.25;3.60;;;18.40;37.80;;;;;;5015928;28;20405;-58
2021/11/26 06:47:20;;;;;;;10.85;4.55;;;18.40;37.70;;;;;;5037347;28;20026;-57
2021/11/26 06:49:47;;;;;;;9.32;4.07;;;18.40;37.50;;;;;;5038005;28;20036;-57
2021/11/26 06:52:13;;;;;;;10.07;3.45;;;18.40;37.60;;;;;;5019678;28;20100;-55
2021/11/26 06:54:40;;;;;;;7.93;3.83;;;18.40;37.50;;;;;;5019423;28;20044;-57
2021/11/26 06:57:06;;;;;;;8.43;3.00;;;18.40;37.30;;;;;;5018385;28;20014;-57
2021/11/26 06:59:32;;;;;;;9.88;3.67;;;18.50;37.20;;;;;;5037026;28;20040;-58
2021/11/26 07:01:58;;;;;;;8.02;3.42;;;18.50;37.10;;;;;;5036497;28;20013;-59
2021/11/26 07:04:25;;;;;;;10.18;3.95;;;18.60;37.00;;;;;;5018259;28;20034;-58
2021/11/26 07:06:50;;;;;;;8.40;3.45;;;18.60;36.80;;;;;;5002295;28;20120;-59
2021/11/26 07:09:16;;;;;;;10.98;3.78;;;18.60;36.70;;;;;;5036267;28;20481;-58
2021/11/26 07:11:43;;;;;;;10.35;3.90;;;18.60;36.50;;;;;;5035934;28;20543;-57
2021/11/26 07:14:08;;;;;;;8.23;3.85;;;18.70;36.50;;;;;;5018213;28;20135;-58
2021/11/26 07:16:35;;;;;;;10.02;3.70;;;18.70;36.40;;;;;;5035974;28;20088;-58
2021/11/26 07:19:02;;;;;;;9.05;3.67;;;18.60;36.30;;;;;;5017341;28;20493;-58
2021/11/26 07:21:28;;;;;;;9.75;3.33;;;18.70;36.30;;;;;;5033881;28;20072;-57
2021/11/26 07:23:56;;;;;;;14.70;3.47;;;18.30;36.50;;;;;;5033991;28;20482;-59
2021/11/26 07:26:22;;;;;;;13.40;4.40;;;17.50;38.50;;;;;;4999811;28;20044;-59
2021/11/26 07:28:48;;;;;;;14.90;4.30;;;16.40;40.60;;;;;;5034712;28;20473;-58
2021/11/26 07:31:16;;;;;;;10.38;3.50;;;16.00;41.60;;;;;;5035088;28;20024;-57
2021/11/26 07:33:45;;;;;;;9.32;3.58;;;15.90;41.30;;;;;;5001638;28;20025;-58
2021/11/26 07:36:11;;;;;;;11.38;3.63;;;15.50;42.50;;;;;;5035264;28;20017;-59
2021/11/26 07:38:37;;;;;;;11.77;3.50;;;15.60;42.60;;;;;;5034935;28;20100;-58
2021/11/26 07:41:02;;;;;;;9.15;2.95;;;15.50;42.90;;;;;;5017269;28;20067;-59
2021/11/26 07:43:34;;;;;;;10.07;3.72;;;15.70;42.80;;;;;;5034761;28;20024;-58
2021/11/26 07:46:02;;;;;;;11.27;3.20;;;15.90;42.90;;;;;;5034093;28;20147;-58
2021/11/26 07:48:30;;;;;;;12.57;3.90;;;16.10;42.10;;;;;;5015995;28;20440;-59
2021/11/26 07:50:56;;;;;;;11.77;3.78;;;16.20;42.40;;;;;;5016858;28;20076;-58
2021/11/26 07:53:22;;;;;;;11.98;2.97;;;16.10;42.40;;;;;;5016471;28;20018;-57
2021/11/26 07:55:49;;;;;;;11.00;3.45;;;16.10;41.60;;;;;;5034064;28;20016;-58
2021/11/26 07:58:16;;;;;;;10.10;3.28;;;16.20;41.90;;;;;;5034442;28;20021;-58
2021/11/26 08:00:42;;;;;;;9.10;3.25;;;16.20;42.10;;;;;;5016390;28;20036;-56
2021/11/26 08:03:12;;;;;;;12.98;3.17;;;16.40;42.40;;;;;;5016351;28;20076;-59
2021/11/26 08:05:38;;;;;;;13.35;3.35;;;16.50;41.80;;;;;;5033967;28;20055;-58
2021/11/26 08:08:09;;;;;;;13.88;3.63;;;16.60;41.50;;;;;;5034527;28;20025;-56
2021/11/26 08:10:36;;;;;;;12.38;3.45;;;16.60;41.80;;;;;;5034696;28;20037;-57
2021/11/26 08:13:02;;;;;;;17.50;3.50;;;16.90;41.90;;;;;;5033980;28;20117;-56
2021/11/26 08:15:30;;;;;;;14.98;3.30;;;16.60;41.80;;;;;;4999514;28;20006;-57
2021/11/26 08:17:57;;;;;;;15.73;3.90;;;16.30;41.40;;;;;;5016755;28;20083;-56
2021/11/26 08:20:23;;;;;;;13.60;3.20;;;16.10;42.40;;;;;;5034547;28;20477;-54
2021/11/26 08:22:49;;;;;;;14.35;3.83;;;16.10;42.60;;;;;;5016788;28;20047;-58
2021/11/26 08:25:15;;;;;;;14.98;3.35;;;16.30;42.10;;;;;;5016913;28;20492;-57
2021/11/26 08:27:40;;;;;;;12.98;3.38;;;16.50;41.60;;;;;;5034043;28;20445;-58
2021/11/26 08:30:07;;;;;;;15.32;3.25;;;16.60;41.30;;;;;;5033912;28;20013;-59
2021/11/26 08:32:33;;;;;;;10.90;3.50;;;16.40;41.40;;;;;;5016015;28;20028;-56
2021/11/26 08:34:59;;;;;;;10.57;3.70;;;16.50;41.50;;;;;;5033944;28;20014;-54
2021/11/26 08:37:26;;;;;;;8.63;3.42;;;16.30;41.60;;;;;;5034455;28;20075;-58
2021/11/26 08:39:51;;;;;;;11.43;3.75;;;16.20;41.60;;;;;;5034402;28;20017;-58
2021/11/26 08:42:17;;;;;;;12.88;3.97;;;16.30;41.40;;;;;;5016547;28;20052;-57
2021/11/26 08:44:43;;;;;;;16.65;3.95;;;16.50;41.10;;;;;;5034404;28;20013;-56
2021/11/26 08:47:09;;;;;;;12.45;4.32;;;16.30;41.30;;;;;;5034423;28;20435;-55
2021/11/26 08:49:35;;;;;;;15.45;4.75;;;16.10;41.30;;;;;;5016588;28;20377;-57
2021/11/26 08:52:01;;;;;;;13.25;4.47;;;16.00;41.70;;;;;;5016165;28;20119;-58
2021/11/26 08:54:27;;;;;;;10.43;4.00;;;16.00;41.90;;;;;;5034304;28;20096;-54
2021/11/26 08:56:56;;;;;;;13.65;4.47;;;16.00;42.10;;;;;;5033768;28;20072;-51
2021/11/26 08:59:23;;;;;;;10.70;4.32;;;16.10;41.80;;;;;;5016294;28;20014;-56
2021/11/26 09:01:49;;;;;;;17.45;5.18;;;16.00;42.80;;;;;;5033425;28;20092;-55
2021/11/26 09:04:15;;;;;;;11.02;3.92;;;15.80;42.30;;;;;;5034324;28;20095;-58
2021/11/26 09:06:41;;;;;;;9.15;4.15;;;15.60;42.30;;;;;;5034658;28;20386;-57
2021/11/26 09:09:07;;;;;;;13.48;4.40;;;15.90;41.90;;;;;;5034599;28;20061;-57
2021/11/26 09:11:33;;;;;;;13.50;4.30;;;16.40;41.00;;;;;;5002006;28;20025;-57
2021/11/26 09:14:00;;;;;;;10.55;3.90;;;16.80;40.20;;;;;;5000278;28;20120;-57
2021/11/26 09:16:26;;;;;;;14.50;4.45;;;17.10;39.40;;;;;;5016001;28;20041;-60
2021/11/26 09:18:52;;;;;;;12.98;4.07;;;16.90;39.40;;;;;;5014716;28;20029;-57
2021/11/26 09:21:21;;;;;;;11.52;3.97;;;16.40;40.30;;;;;;5014152;28;20456;-53
2021/11/26 09:23:49;;;;;;;15.18;3.83;;;15.90;41.30;;;;;;5013827;28;20018;-54
2021/11/26 09:26:18;;;;;;;10.95;3.88;;;15.40;42.50;;;;;;5031765;28;20030;-57
2021/11/26 09:28:43;;;;;;;9.80;3.60;;;15.30;43.10;;;;;;5013341;28;20060;-55
2021/11/26 09:31:09;;;;;;;9.57;3.60;;;15.20;43.30;;;;;;5013662;28;20485;-56
2021/11/26 09:33:38;;;;;;;11.02;3.17;;;15.20;43.50;;;;;;5014222;28;20018;-56
2021/11/26 09:36:06;;;;;;;9.38;3.40;;;15.00;43.70;;;;;;5031444;28;20057;-57
2021/11/26 09:38:35;;;;;;;16.15;3.85;;;14.70;44.30;;;;;;5013559;28;20025;-56
2021/11/26 09:41:03;;;;;;;11.75;3.35;;;14.80;44.20;;;;;;5031616;28;20127;-55
2021/11/26 09:43:30;;;;;;;8.60;3.15;;;14.70;44.40;;;;;;5013524;28;20025;-57
2021/11/26 09:45:56;;;;;;;11.02;3.63;;;14.60;44.70;;;;;;5030952;28;20504;-58
2021/11/26 09:48:22;;;;;;;11.70;3.85;;;14.60;45.00;;;;;;5031175;28;20033;-57
2021/11/26 09:50:49;;;;;;;15.07;3.70;;;14.70;44.80;;;;;;5031617;28;20021;-57
2021/11/26 09:53:21;;;;;;;11.13;3.38;;;14.80;44.80;;;;;;5013895;28;20470;-55
2021/11/26 09:55:53;;;;;;;9.95;3.53;;;14.90;44.70;;;;;;5013701;28;20025;-58
2021/11/26 09:58:19;;;;;;;;;;;14.90;44.70;;;;;;5014014;28;20105;-57
2021/11/26 10:00:45;;;;;;;11.65;3.35;;;15.00;44.80;;;;;;5031163;28;19905;-60
2021/11/26 10:03:12;;;;;;;12.27;3.30;;;14.70;45.20;;;;;;5031130;28;20018;-57
2021/11/26 10:05:38;;;;;;;12.38;3.45;;;14.70;45.50;;;;;;5029241;28;20103;-57
2021/11/26 10:08:05;;;;;;;12.75;4.15;;;15.00;45.20;;;;;;5014127;28;20029;-58
2021/11/26 10:10:33;;;;;;;11.32;3.55;;;15.00;45.00;;;;;;5031227;28;20009;-58
2021/11/26 10:13:16;;;;;;;14.82;4.03;;;14.90;45.40;;;;;;5014190;28;20009;-58
2021/11/26 10:15:44;;;;;;;9.35;3.33;;;14.40;46.80;;;;;;5031637;28;20062;-57
2021/11/26 10:18:14;;;;;;;13.45;3.72;;;14.50;47.30;;;;;;5031491;28;20377;-59
2021/11/26 10:20:56;;;;;;;12.83;3.73;;;14.70;47.10;;;;;;5034898;28;20014;-60
2021/11/26 10:23:24;;;;;;;10.68;3.35;;;14.80;47.20;;;;;;5034991;28;20098;-57
2021/11/26 10:25:50;;;;;;;9.57;3.20;;;14.80;47.60;;;;;;5017663;28;20010;-59
2021/11/26 10:28:18;;;;;;;10.48;2.95;;;14.30;47.80;;;;;;5001104;28;20041;-59
2021/11/26 10:30:46;;;;;;;11.05;2.92;;;14.40;48.40;;;;;;5017675;28;20477;-57
2021/11/26 10:33:25;;;;;;;10.32;3.10;;;14.10;48.40;;;;;;5002243;28;20017;-57
2021/11/26 10:36:01;;;;;;;9.48;2.90;;;14.10;48.90;;;;;;5019299;28;20113;-58
2021/11/26 10:38:30;;;;;;;9.00;2.70;;;14.30;49.00;;;;;;5035915;28;20116;-59
2021/11/26 10:41:00;;;;;;;11.02;3.30;;;14.60;48.60;;;;;;5036610;28;20010;-58
2021/11/26 10:59:51;;;;;;;16.10;5.22;;;15.20;47.50;;;;;;5035998;28;20071;-60
2021/11/26 11:02:44;;;;;;;16.95;4.43;;;15.50;46.70;;;;;;5018015;28;20017;-58
2021/11/26 11:05:12;;;;;;;12.60;3.70;;;16.00;45.60;;;;;;5032284;28;20029;-58
2021/11/26 11:07:42;;;;;;;15.85;4.30;;;16.30;44.80;;;;;;5000898;28;20494;-57
2021/11/26 11:10:09;;;;;;;14.90;4.00;;;16.50;44.20;;;;;;5035265;28;20030;-58
2021/11/26 11:12:38;;;;;;;11.00;3.95;;;16.80;44.10;;;;;;5034870;28;20033;-59
2021/11/26 11:15:09;;;;;;;13.00;3.58;;;16.90;43.00;;;;;;5035729;28;20156;-57
2021/11/26 11:17:36;;;;;;;14.60;3.58;;;17.10;42.60;;;;;;5035240;28;20021;-58
2021/11/26 11:20:12;;;;;;;9.30;3.10;;;17.10;42.20;;;;;;5035175;28;20021;-56
2021/11/26 11:22:38;;;;;;;10.02;3.35;;;17.10;42.20;;;;;;5017531;28;20040;-54
2021/11/26 11:25:07;;;;;;;8.82;2.90;;;17.10;42.10;;;;;;5017361;28;20060;-54
2021/11/26 11:27:32;;;;;;;14.65;3.70;;;17.20;42.00;;;;;;5035047;28;20140;-57
2021/11/26 11:29:58;;;;;;;9.65;3.05;;;17.20;41.60;;;;;;5017236;28;20041;-56
2021/11/26 11:32:26;;;;;;;9.80;2.70;;;17.30;41.60;;;;;;5034252;28;20558;-55
2021/11/26 11:34:53;;;;;;;9.88;2.75;;;17.30;41.50;;;;;;5017450;28;20076;-56
2021/11/26 11:37:21;;;;;;;8.60;2.45;;;17.40;41.30;;;;;;5000575;28;20010;-54
2021/11/26 11:39:52;;;;;;;8.48;2.33;;;17.60;41.10;;;;;;5017756;28;20040;-54
2021/11/26 11:42:37;;;;;;;7.03;2.10;;;17.60;40.90;;;;;;5017574;28;20006;-55
2021/11/26 11:45:10;;;;;;;8.07;2.25;;;17.60;40.80;;;;;;5034258;28;20041;-55
2021/11/26 11:47:47;;;;;;;18.33;2.85;;;17.60;40.80;;;;;;5033472;28;20389;-57
2021/11/26 11:50:24;;;;;;;6.30;2.30;;;17.60;40.90;;;;;;5016628;28;20014;-55
2021/11/26 11:52:57;;;;;;;7.28;2.10;;;17.60;40.70;;;;;;5016848;28;20021;-56
2021/11/26 11:55:32;;;;;;;7.28;2.53;;;17.60;40.70;;;;;;5034315;28;20012;-55
2021/11/26 11:58:13;;;;;;;5.85;2.22;;;17.60;40.70;;;;;;5033633;28;20025;-55
2021/11/26 12:00:39;;;;;;;9.30;2.30;;;17.70;40.70;;;;;;5015740;28;20041;-56
2021/11/26 12:03:13;;;;;;;6.13;2.22;;;17.60;40.70;;;;;;5033839;28;20088;-56
2021/11/26 12:05:53;;;;;;;5.72;2.10;;;17.60;40.80;;;;;;4999475;28;20477;-56
2021/11/26 12:08:19;;;;;;;5.82;2.55;;;17.60;40.80;;;;;;5033373;28;20025;-56
2021/11/26 12:10:53;;;;;;;9.07;2.38;;;17.70;40.90;;;;;;5033531;28;20030;-57
2021/11/26 12:13:30;;;;;;;6.63;2.17;;;17.70;41.40;;;;;;5033161;28;20053;-55
2021/11/26 12:16:13;;;;;;;9.25;2.08;;;17.80;40.90;;;;;;5033433;28;20031;-52
2021/11/26 12:18:45;;;;;;;7.07;2.00;;;17.80;40.70;;;;;;5015748;28;20075;-55
2021/11/26 12:21:12;;;;;;;5.88;2.28;;;17.80;40.60;;;;;;5033654;28;20087;-57
2021/11/26 12:23:56;;;;;;;6.70;2.00;;;17.70;40.80;;;;;;5033362;28;20013;-57
2021/11/26 12:26:26;;;;;;;4.97;1.52;;;17.80;40.80;;;;;;5017955;28;20064;-57
2021/11/26 12:28:56;;;;;;;7.28;1.85;;;18.00;40.60;;;;;;5032665;28;20067;-58
2021/11/26 12:31:31;;;;;;;7.68;1.80;;;18.00;40.40;;;;;;5033159;28;20488;-57
2021/11/26 12:34:07;;;;;;;5.03;2.03;;;18.10;40.30;;;;;;5014944;28;20021;-57
2021/11/26 12:36:45;;;;;;;5.60;2.60;;;18.10;40.40;;;;;;5014602;28;20433;-57
2021/11/26 12:39:17;;;;;;;5.30;2.45;;;18.00;40.50;;;;;;5032669;28;20037;-56
2021/11/26 12:41:44;;;;;;;4.18;2.00;;;18.10;40.50;;;;;;5033256;28;20101;-55
2021/11/26 12:44:17;;;;;;;6.15;1.92;;;18.00;40.60;;;;;;5032555;28;20450;-57
2021/11/26 12:46:44;;;;;;;9.20;2.00;;;17.90;40.50;;;;;;5013952;28;20018;-55
2021/11/26 12:51:42;;;;;;;10.73;2.47;;;17.40;43.30;;;;;;5014466;28;20443;-59
2021/11/26 12:54:08;;;;;;;7.85;2.83;;;16.60;44.90;;;;;;5032370;28;20140;-57
2021/11/26 12:56:39;;;;;;;8.43;2.30;;;15.80;46.40;;;;;;5014616;28;20075;-58
2021/11/26 12:59:05;;;;;;;8.25;2.75;;;15.10;48.20;;;;;;5032363;28;20025;-54
2021/11/26 13:01:32;;;;;;;6.80;2.72;;;14.90;49.00;;;;;;4997523;28;20014;-56
2021/11/26 13:03:58;;;;;;;8.35;2.65;;;14.80;49.80;;;;;;5013743;28;20045;-60